LEJR/XRY METAR and TAF weather

Enter ICAO airport designator
Station Type Date Time Source
LEJR METAR 2020/09/18 07:30 UTC NOAA

LEJR 180730Z 15012KT 110V190 9999 SCT045 23/19 Q1011


Station Type Date Time Source
LEJR Decoded METAR 2020/09/18 07:30 UTC NOAA

Jerez De La Fronteraaeropuerto, Spain (LEJR) 36-45N 006-04W 28M
Sep 18, 2020 - 03:30 AM EDT / 2020.09.18 0730 UTC
Wind: from the SSE (150 degrees) at 14 MPH (12 KT) (direction variable):0
Visibility: greater than 7 mile(s):0
Sky conditions: partly cloudy
Temperature: 73 F (23 C)
Dew Point: 66 F (19 C)
Relative Humidity: 78%
Pressure (altimeter): 29.85 in. Hg (1011 hPa)
ob: LEJR 180730Z 15012KT 110V190 9999 SCT045 23/19 Q1011
cycle: 7

Station Type Date Time Source
LEJR TAF 2020/09/18 06:57 UTC NOAA

TAF
AMD LEJR 180653Z 1806/1906 21012KT 9999 SCT020 TX29/1814Z TN20/1806Z PROB30
TEMPO 1806/1815 4000 SHRA FEW025TCU SCT035 PROB30
TEMPO 1806/1812 22020G30KT 3000 TSRA SCT025CB BKN035

Example: see airport list